الصفحة الرئيسية
METAR-TAF:

METAR-TAF

مطار :

Pago Pago, جزر الولايات المتحدة البعيدة الصغيرة

دائرة عرض: 14-20S, خط طول: 170-43W, ارتفاع: 3 متر

مراقبة الطقس الحالي

تاريخ ووقت الإصدار 22 دقيقة قبل الساعة 11:50UTC
ريح 9 عقدة من الشمال تتزايد حتى 22 عقدة
درجة الحرارة 24°درجة مئوية
الرطوبة 100%
ضغط 1008 hPa
الرؤية: 8.0 كم
غيوم متفرقة على ارتفاع 1400 قدم, مزن ركامية عمودية.
غيوم مفككة على ارتفاع 3500 قدم
ملبد بالغيوم على ارتفاع 9000 قدم
زخات من الأمطار الخفيفة

METAR: NSTU 261150Z 35009G22KT 5SM -SHRA SCT014TCU BKN035 OVC090 24/24 A2976 RMK TCU ALQDS SLP080 60046 70217 8/42/ T02440240 10244 20241 58012

زمن: 01:12 (12:12 UTC)


TAF: مفقودة

أرصاد الطقس والتوقعات من أكثر من 4000 مطار (تقارير الطقس للمطار METAR والتنبؤ بالطقس بالمطارTAF).

المحطات المتاحة هي النقط الصفراء والحمراء على الخريطة.

حرك المؤشر فوق النقطة لمعرفة اسم المحطة.

ثم انقر لمعرفة أرصاد وتوقعات الطقس.

لتغيير الخارطة: اضغط على الأزرار الخضراء مع رمز الصليب الأسود للتكبير. على الزر الأخضر مع شرطة للتصغير، أو على الأسهم الخضراء للخرائط المجاورة.


METAR-TAF: